Time;durP1;ratioP1;P1;durP2;ratioP2;P2;SDS_P1;SDS_P2;PMS_P1;PMS_P2;Temp;Humidity;BMP_temperature;BMP_pressure;BME280_temperature;BME280_humidity;BME280_pressure;Samples;Min_cycle;Max_cycle;Signal;HPM_P1;HPM_P2
2023/05/08 00:01:06;;;;;;;2.35;1.98;;;9.60;99.90;;;;;;5038104;28;20096;-51
2023/05/08 00:03:32;;;;;;;2.13;1.92;;;9.60;99.90;;;;;;5039924;28;20049;-51
2023/05/08 00:05:57;;;;;;;2.67;2.47;;;9.50;99.90;;;;;;5038570;28;20475;-51
2023/05/08 00:08:23;;;;;;;3.80;2.10;;;9.60;99.90;;;;;;5039000;28;20033;-53
2023/05/08 00:10:49;;;;;;;1.85;1.75;;;9.50;99.90;;;;;;5023365;28;20060;-51
2023/05/08 00:13:14;;;;;;;2.78;2.55;;;9.50;99.90;;;;;;5038449;28;20032;-51
2023/05/08 00:15:40;;;;;;;3.97;2.50;;;9.50;99.90;;;;;;5039811;28;20108;-50
2023/05/08 00:18:05;;;;;;;2.33;2.13;;;9.50;99.90;;;;;;5034792;28;20025;-52
2023/05/08 00:20:33;;;;;;;2.60;2.40;;;9.40;99.90;;;;;;5038109;28;20117;-52
2023/05/08 00:22:58;;;;;;;2.80;2.58;;;9.40;99.90;;;;;;5038245;28;20025;-51
2023/05/08 00:25:24;;;;;;;4.88;2.58;;;9.40;99.90;;;;;;5038366;28;20324;-52
2023/05/08 00:27:49;;;;;;;2.45;2.25;;;9.30;99.90;;;;;;5024024;28;20074;-52
2023/05/08 00:30:15;;;;;;;2.45;2.25;;;9.30;99.90;;;;;;5037393;28;20068;-51
2023/05/08 00:32:41;;;;;;;2.60;2.40;;;9.30;99.90;;;;;;5039757;28;20040;-50
2023/05/08 00:35:07;;;;;;;2.53;2.25;;;9.30;99.90;;;;;;5038082;28;20045;-52
2023/05/08 00:37:32;;;;;;;4.43;2.70;;;9.30;99.90;;;;;;5038465;28;20548;-51
2023/05/08 00:39:58;;;;;;;3.03;2.40;;;9.20;99.90;;;;;;5037813;28;20021;-52
2023/05/08 00:42:23;;;;;;;2.30;2.08;;;9.20;99.90;;;;;;5038663;28;20028;-51
2023/05/08 00:44:49;;;;;;;3.00;2.80;;;9.20;99.90;;;;;;5037963;28;20022;-51
2023/05/08 00:47:15;;;;;;;3.20;2.90;;;9.20;99.90;;;;;;5037878;28;20487;-53
2023/05/08 00:49:41;;;;;;;2.30;2.10;;;9.10;99.90;;;;;;5038496;28;20403;-52
2023/05/08 00:52:07;;;;;;;3.05;2.63;;;9.20;99.90;;;;;;5038409;28;20464;-50
2023/05/08 00:54:35;;;;;;;2.50;2.30;;;9.20;99.90;;;;;;5020934;28;20068;-55
2023/05/08 00:57:01;;;;;;;2.75;2.55;;;9.10;99.90;;;;;;5038680;28;20021;-52
2023/05/08 00:59:27;;;;;;;3.50;2.70;;;9.10;99.90;;;;;;5035399;28;20029;-53
2023/05/08 01:01:52;;;;;;;3.33;2.47;;;9.10;99.90;;;;;;5036169;28;20095;-50
2023/05/08 01:04:23;;;;;;;2.88;2.67;;;9.00;99.90;;;;;;5036287;28;20307;-51
2023/05/08 01:06:48;;;;;;;2.83;2.50;;;9.00;99.90;;;;;;5021805;28;20095;-52
2023/05/08 01:09:14;;;;;;;3.20;2.90;;;9.00;99.90;;;;;;5039934;28;20045;-51
2023/05/08 01:11:48;;;;;;;2.70;2.50;;;9.00;99.90;;;;;;5023303;28;20029;-51
2023/05/08 01:14:42;;;;;;;3.42;2.55;;;9.00;99.90;;;;;;5039124;28;20103;-51
2023/05/08 01:17:15;;;;;;;3.20;2.90;;;8.90;99.90;;;;;;5030031;28;20499;-49
2023/05/08 01:20:02;;;;;;;2.50;2.30;;;9.00;99.90;;;;;;5038767;28;20022;-52
2023/05/08 01:23:07;;;;;;;2.45;2.22;;;8.90;99.90;;;;;;5066020;23;20486;-62
2023/05/08 01:26:06;;;;;;;2.97;2.67;;;8.90;99.90;;;;;;5056907;28;20029;-65
2023/05/08 01:28:35;;;;;;;2.65;2.45;;;8.90;99.90;;;;;;5056779;28;20061;-61
2023/05/08 01:31:11;;;;;;;3.58;2.90;;;8.90;99.90;;;;;;5055969;28;20119;-62
2023/05/08 01:33:51;;;;;;;3.53;2.95;;;8.80;99.90;;;;;;5058686;28;20450;-62
2023/05/08 01:36:28;;;;;;;3.95;2.45;;;8.80;99.90;;;;;;5056815;28;20517;-62
2023/05/08 01:39:05;;;;;;;2.95;2.58;;;8.80;99.90;;;;;;5057852;28;20097;-60
2023/05/08 01:41:33;;;;;;;3.33;3.03;;;8.80;99.90;;;;;;5056389;28;20487;-62
2023/05/08 01:44:23;;;;;;;2.53;2.33;;;8.70;99.90;;;;;;5057982;28;20116;-62
2023/05/08 01:46:50;;;;;;;5.32;2.90;;;8.70;99.90;;;;;;5058160;28;20059;-60
2023/05/08 01:49:39;;;;;;;3.22;2.72;;;8.60;99.90;;;;;;5058271;28;20082;-61
2023/05/08 01:52:13;;;;;;;3.10;2.83;;;8.60;99.90;;;;;;5056740;28;20040;-62
2023/05/08 01:54:45;;;;;;;3.05;2.75;;;8.60;99.90;;;;;;5057015;28;20027;-61
2023/05/08 01:57:13;;;;;;;3.75;3.00;;;8.60;99.90;;;;;;5059135;28;20500;-61
2023/05/08 01:59:41;;;;;;;3.42;3.00;;;8.50;99.90;;;;;;5056937;28;20056;-63
2023/05/08 02:02:08;;;;;;;3.13;2.85;;;8.50;99.90;;;;;;5055258;28;20045;-63
2023/05/08 02:04:35;;;;;;;3.38;3.08;;;8.40;99.90;;;;;;5056804;28;20021;-63
2023/05/08 02:07:01;;;;;;;4.07;3.05;;;8.40;99.90;;;;;;5055928;28;20574;-62
2023/05/08 02:09:28;;;;;;;3.08;2.78;;;8.40;99.90;;;;;;5041096;28;20065;-63
2023/05/08 02:11:55;;;;;;;2.97;2.60;;;8.40;99.90;;;;;;5056167;28;20107;-63
2023/05/08 02:14:22;;;;;;;3.65;2.70;;;8.30;99.90;;;;;;5057478;28;20048;-61
2023/05/08 02:16:51;;;;;;;3.13;2.83;;;8.30;99.90;;;;;;5056005;28;20119;-62
2023/05/08 02:19:20;;;;;;;4.93;3.20;;;8.30;99.90;;;;;;5056759;28;20143;-63
2023/05/08 02:21:47;;;;;;;3.00;2.70;;;8.30;99.90;;;;;;5056208;28;20074;-63
2023/05/08 02:24:13;;;;;;;4.40;3.00;;;8.20;99.90;;;;;;5041576;28;20102;-64
2023/05/08 02:26:41;;;;;;;3.33;2.92;;;8.20;99.90;;;;;;5038412;28;20105;-63
2023/05/08 02:29:08;;;;;;;3.15;2.85;;;8.20;99.90;;;;;;5039130;28;20029;-63
2023/05/08 02:31:35;;;;;;;4.20;3.05;;;8.20;99.90;;;;;;5056654;28;20167;-62
2023/05/08 02:34:03;;;;;;;3.13;2.83;;;8.10;99.90;;;;;;5040364;28;20037;-62
2023/05/08 02:36:29;;;;;;;3.10;2.60;;;8.10;99.90;;;;;;5055341;28;20115;-63
2023/05/08 02:38:58;;;;;;;3.03;2.72;;;8.10;99.90;;;;;;5058472;28;20548;-64
2023/05/08 02:41:25;;;;;;;3.42;3.13;;;8.00;99.90;;;;;;5057246;28;20103;-62
2023/05/08 02:43:51;;;;;;;3.92;3.25;;;8.00;99.90;;;;;;5038520;28;20024;-65
2023/05/08 02:46:44;;;;;;;3.33;2.97;;;8.00;99.90;;;;;;5055251;28;20111;-62
2023/05/08 02:49:32;;;;;;;3.65;3.28;;;8.00;99.90;;;;;;5056038;28;20086;-63
2023/05/08 02:52:15;;;;;;;5.05;3.55;;;7.90;99.90;;;;;;5055463;28;20097;-63
2023/05/08 02:55:10;;;;;;;3.75;3.45;;;7.90;99.90;;;;;;5057229;28;20481;-62
2023/05/08 02:57:52;;;;;;;3.20;3.00;;;7.90;99.90;;;;;;5055510;28;20029;-63
2023/05/08 03:00:22;;;;;;;5.13;3.10;;;7.80;99.90;;;;;;5056065;28;20017;-63
2023/05/08 03:02:52;;;;;;;3.65;3.35;;;7.80;99.90;;;;;;5054687;28;20486;-63
2023/05/08 03:05:31;;;;;;;5.38;3.58;;;7.80;99.90;;;;;;5055991;28;20052;-61
2023/05/08 03:08:01;;;;;;;4.35;3.40;;;7.80;99.90;;;;;;5055934;28;20040;-60
2023/05/08 03:10:39;;;;;;;3.33;2.95;;;7.70;99.90;;;;;;5055757;28;20033;-63
2023/05/08 03:13:08;;;;;;;3.28;2.97;;;7.70;99.90;;;;;;5046294;28;20037;-62
2023/05/08 03:15:48;;;;;;;5.25;3.05;;;7.70;99.90;;;;;;5039152;28;20029;-63
2023/05/08 03:18:17;;;;;;;4.35;2.97;;;7.70;99.90;;;;;;5056754;28;20078;-63
2023/05/08 03:20:46;;;;;;;3.13;2.88;;;7.70;99.90;;;;;;5056659;28;20021;-62
2023/05/08 03:23:14;;;;;;;5.07;3.50;;;7.60;99.90;;;;;;5054781;28;20075;-63
2023/05/08 03:25:42;;;;;;;3.50;3.13;;;7.60;99.90;;;;;;5055523;28;20025;-62
2023/05/08 03:28:09;;;;;;;3.58;2.97;;;7.60;99.90;;;;;;5055721;28;20119;-62
2023/05/08 03:30:36;;;;;;;3.20;2.90;;;7.50;99.90;;;;;;5040590;28;20048;-62
2023/05/08 03:33:06;;;;;;;4.22;3.28;;;7.50;99.90;;;;;;5046489;28;20032;-63
2023/05/08 03:35:36;;;;;;;3.40;3.10;;;7.50;99.90;;;;;;5045735;28;20024;-63
2023/05/08 03:38:03;;;;;;;4.22;3.80;;;7.50;99.90;;;;;;5037448;28;20499;-63
2023/05/08 03:40:28;;;;;;;6.03;3.28;;;7.50;99.90;;;;;;5040271;28;20116;-63
2023/05/08 03:42:54;;;;;;;3.55;2.90;;;7.40;99.90;;;;;;5055350;28;20146;-63
2023/05/08 03:45:20;;;;;;;4.60;3.58;;;7.40;99.90;;;;;;5038727;28;20040;-63
2023/05/08 03:47:46;;;;;;;3.83;3.42;;;7.40;99.90;;;;;;5055762;28;20036;-63
2023/05/08 03:50:12;;;;;;;3.35;3.08;;;7.40;99.90;;;;;;5055830;28;20021;-62
2023/05/08 03:52:38;;;;;;;5.22;3.90;;;7.30;99.90;;;;;;5055074;28;20252;-62
2023/05/08 03:55:04;;;;;;;3.58;3.28;;;7.30;99.90;;;;;;5054957;28;20400;-63
2023/05/08 03:57:41;;;;;;;4.20;3.17;;;7.30;99.90;;;;;;5052299;28;20129;-63
2023/05/08 04:00:15;;;;;;;3.97;3.45;;;7.30;99.90;;;;;;5055084;28;20021;-63
2023/05/08 04:02:51;;;;;;;3.58;3.28;;;7.30;99.90;;;;;;5053829;28;20012;-62
2023/05/08 04:05:24;;;;;;;4.85;4.35;;;7.20;99.90;;;;;;5054952;28;20028;-62
2023/05/08 04:07:55;;;;;;;4.10;3.70;;;7.20;99.90;;;;;;5053568;28;20025;-61
2023/05/08 04:10:30;;;;;;;3.17;2.85;;;7.20;99.90;;;;;;5053239;28;20021;-63
2023/05/08 04:13:10;;;;;;;3.70;3.35;;;7.20;99.90;;;;;;5053902;28;20487;-63
2023/05/08 04:16:07;;;;;;;3.50;3.20;;;7.20;99.90;;;;;;5054866;28;20033;-63
2023/05/08 04:18:37;;;;;;;3.30;3.00;;;7.10;99.90;;;;;;5057459;28;20025;-64
2023/05/08 04:21:09;;;;;;;3.33;3.00;;;7.10;99.90;;;;;;5037803;28;20790;-64
2023/05/08 04:23:37;;;;;;;4.68;4.05;;;7.20;99.90;;;;;;5057608;28;20020;-63
2023/05/08 04:26:04;;;;;;;3.72;3.42;;;7.20;99.90;;;;;;5057061;28;20035;-62
2023/05/08 04:28:30;;;;;;;6.03;4.00;;;7.20;99.90;;;;;;5058468;28;20025;-63
2023/05/08 04:30:57;;;;;;;4.15;3.55;;;7.20;99.90;;;;;;5042661;28;20421;-63
2023/05/08 04:33:23;;;;;;;4.82;4.18;;;7.20;99.90;;;;;;5040003;28;20419;-63
2023/05/08 04:35:49;;;;;;;4.75;4.35;;;7.20;99.90;;;;;;5058002;28;20029;-63
2023/05/08 04:38:17;;;;;;;4.55;4.15;;;7.20;99.90;;;;;;5056500;28;20541;-63
2023/05/08 04:40:42;;;;;;;3.80;3.22;;;7.30;99.90;;;;;;5043234;28;20032;-64
2023/05/08 04:43:08;;;;;;;4.00;3.60;;;7.30;99.90;;;;;;5057699;28;20033;-63
2023/05/08 04:45:34;;;;;;;4.20;3.80;;;7.30;99.90;;;;;;5057735;28;20101;-63
2023/05/08 04:47:59;;;;;;;4.05;3.75;;;7.30;99.90;;;;;;5039561;28;20487;-62
2023/05/08 04:50:25;;;;;;;4.47;4.07;;;7.30;99.90;;;;;;5057250;28;20116;-64
2023/05/08 04:52:50;;;;;;;4.38;3.88;;;7.30;99.90;;;;;;5056904;28;20086;-63
2023/05/08 04:55:16;;;;;;;4.25;3.85;;;7.40;99.90;;;;;;5056923;28;20051;-63
2023/05/08 04:57:42;;;;;;;3.92;3.63;;;7.40;99.90;;;;;;5041029;28;20025;-63
2023/05/08 05:00:08;;;;;;;5.63;4.25;;;7.50;99.90;;;;;;5056866;28;20397;-64
2023/05/08 05:02:33;;;;;;;4.30;3.90;;;7.50;99.90;;;;;;5059944;28;20039;-62
2023/05/08 05:05:00;;;;;;;6.00;3.90;;;7.50;99.90;;;;;;5056461;28;20024;-62
2023/05/08 05:07:25;;;;;;;4.35;3.95;;;7.50;99.90;;;;;;5055454;28;20020;-63
2023/05/08 05:09:51;;;;;;;5.38;3.83;;;7.60;99.90;;;;;;5056642;28;20028;-63
2023/05/08 05:12:16;;;;;;;4.50;4.10;;;7.60;99.90;;;;;;5054784;28;20139;-63
2023/05/08 05:14:42;;;;;;;3.88;3.47;;;7.70;99.90;;;;;;5056696;28;20115;-64
2023/05/08 05:17:07;;;;;;;6.00;4.53;;;7.70;99.90;;;;;;5058264;28;20033;-63
2023/05/08 05:19:33;;;;;;;4.70;4.07;;;7.80;99.90;;;;;;5057402;28;20027;-63
2023/05/08 05:21:59;;;;;;;5.45;4.78;;;7.80;99.90;;;;;;5056326;28;20318;-62
2023/05/08 05:24:24;;;;;;;4.75;4.00;;;7.90;99.90;;;;;;5058517;28;20037;-64
2023/05/08 05:26:50;;;;;;;5.45;4.18;;;7.90;99.90;;;;;;5040424;28;20390;-63
2023/05/08 05:29:15;;;;;;;5.10;4.60;;;8.00;99.90;;;;;;5055386;28;20044;-64
2023/05/08 05:31:41;;;;;;;4.80;4.07;;;8.00;99.90;;;;;;5057872;28;20037;-60
2023/05/08 05:34:06;;;;;;;4.80;4.25;;;8.10;99.90;;;;;;5040997;28;20032;-60
2023/05/08 05:36:32;;;;;;;5.30;3.80;;;8.20;99.90;;;;;;5058529;28;20055;-63
2023/05/08 05:38:58;;;;;;;4.65;4.18;;;8.20;99.90;;;;;;5057123;28;20029;-64
2023/05/08 05:41:24;;;;;;;5.85;5.30;;;8.30;99.90;;;;;;5056213;28;20115;-62
2023/05/08 05:43:50;;;;;;;5.05;4.13;;;8.30;99.90;;;;;;5039975;28;20031;-63
2023/05/08 05:46:15;;;;;;;5.00;4.18;;;8.40;99.90;;;;;;5056396;28;20029;-64
2023/05/08 05:48:41;;;;;;;6.68;4.32;;;8.40;99.90;;;;;;5039328;28;20036;-62
2023/05/08 05:51:07;;;;;;;4.95;4.55;;;8.50;99.90;;;;;;5056697;28;20300;-63
2023/05/08 05:53:32;;;;;;;6.47;4.57;;;8.60;99.90;;;;;;5055146;28;20025;-62
2023/05/08 05:55:58;;;;;;;5.10;4.55;;;8.60;99.90;;;;;;5055372;28;20067;-60
2023/05/08 05:58:23;;;;;;;5.50;4.53;;;8.70;99.90;;;;;;5055150;28;20035;-64
2023/05/08 06:00:49;;;;;;;4.55;3.92;;;8.80;99.90;;;;;;5054633;28;20029;-62
2023/05/08 06:03:14;;;;;;;5.05;4.25;;;8.90;99.90;;;;;;5038926;28;20028;-64
2023/05/08 06:05:40;;;;;;;4.70;3.88;;;8.90;99.90;;;;;;5057147;28;20119;-63
2023/05/08 06:08:07;;;;;;;5.30;4.50;;;9.00;99.90;;;;;;5056325;28;20100;-62
2023/05/08 06:10:33;;;;;;;4.97;4.53;;;9.10;99.90;;;;;;5056440;28;20142;-63
2023/05/08 06:12:58;;;;;;;4.20;3.80;;;9.20;99.90;;;;;;5037079;28;20491;-61
2023/05/08 06:15:24;;;;;;;5.05;4.53;;;9.40;99.90;;;;;;5056622;28;20407;-61
2023/05/08 06:17:49;;;;;;;4.78;4.20;;;9.60;99.90;;;;;;5055419;28;20029;-62
2023/05/08 06:20:15;;;;;;;5.13;4.13;;;9.70;99.90;;;;;;5040513;28;20115;-62
2023/05/08 06:22:41;;;;;;;6.30;4.53;;;9.80;99.90;;;;;;5056001;28;20438;-63
2023/05/08 06:25:07;;;;;;;5.40;4.53;;;10.00;99.90;;;;;;5055176;28;20033;-61
2023/05/08 06:27:36;;;;;;;4.93;4.53;;;10.20;99.90;;;;;;5038744;28;20056;-60
2023/05/08 06:30:03;;;;;;;5.20;4.47;;;10.40;99.90;;;;;;5054413;28;20036;-62
2023/05/08 06:32:29;;;;;;;5.18;4.68;;;10.50;99.90;;;;;;5054737;28;20226;-60
2023/05/08 06:34:55;;;;;;;5.65;4.68;;;10.60;99.90;;;;;;5056824;28;20120;-61
2023/05/08 06:37:21;;;;;;;4.47;4.03;;;10.80;99.90;;;;;;5055609;28;20048;-62
2023/05/08 06:39:46;;;;;;;5.60;4.15;;;10.90;99.90;;;;;;5038532;28;20021;-61
2023/05/08 06:42:12;;;;;;;5.80;4.25;;;11.10;99.90;;;;;;5053950;28;20502;-61
2023/05/08 06:44:37;;;;;;;5.32;4.82;;;11.20;99.90;;;;;;5055952;28;20475;-62
2023/05/08 06:47:03;;;;;;;5.30;4.80;;;11.40;99.90;;;;;;5040862;28;20040;-61
2023/05/08 06:49:28;;;;;;;4.50;4.10;;;11.50;99.90;;;;;;5054726;28;20028;-61
2023/05/08 06:51:54;;;;;;;5.15;4.72;;;11.60;99.90;;;;;;5057381;28;20051;-62
2023/05/08 06:54:20;;;;;;;6.57;4.50;;;11.80;99.90;;;;;;5055225;28;20035;-61
2023/05/08 06:56:45;;;;;;;7.13;4.80;;;12.00;99.90;;;;;;5055070;28;20035;-61
2023/05/08 06:59:11;;;;;;;4.55;4.18;;;12.20;99.90;;;;;;5054780;28;20032;-62
2023/05/08 07:01:37;;;;;;;5.25;4.47;;;12.40;99.90;;;;;;5054643;28;20558;-61
2023/05/08 07:04:03;;;;;;;7.85;4.80;;;12.60;99.90;;;;;;5027101;28;20021;-61
2023/05/08 07:06:30;;;;;;;6.97;5.25;;;12.70;99.90;;;;;;5055343;28;20028;-62
2023/05/08 07:08:55;;;;;;;5.45;4.53;;;12.80;99.90;;;;;;5055078;28;20024;-60
2023/05/08 07:11:21;;;;;;;4.88;4.30;;;13.00;99.90;;;;;;5054475;28;20055;-61
2023/05/08 07:13:49;;;;;;;6.18;4.80;;;13.00;99.90;;;;;;5056300;28;20026;-60
2023/05/08 07:16:15;;;;;;;4.88;4.47;;;13.10;99.90;;;;;;5054938;28;20060;-61
2023/05/08 07:18:40;;;;;;;5.05;4.60;;;13.20;99.90;;;;;;5054223;28;20029;-58
2023/05/08 07:21:06;;;;;;;5.20;4.57;;;13.30;99.90;;;;;;5054539;28;20029;-61
2023/05/08 07:23:32;;;;;;;6.07;5.35;;;13.50;99.90;;;;;;5040758;28;20392;-60
2023/05/08 07:25:58;;;;;;;5.45;4.97;;;13.50;99.90;;;;;;5056418;28;20539;-60
2023/05/08 07:28:24;;;;;;;4.90;4.28;;;13.60;99.90;;;;;;5054110;28;20021;-60
2023/05/08 07:30:49;;;;;;;5.10;4.60;;;13.60;99.90;;;;;;5053792;28;20163;-60
2023/05/08 07:33:15;;;;;;;5.25;4.57;;;13.50;99.90;;;;;;5054839;28;20073;-60
2023/05/08 07:35:41;;;;;;;5.90;5.30;;;13.40;99.90;;;;;;5055000;28;20024;-62
2023/05/08 07:38:07;;;;;;;6.35;4.68;;;13.30;99.90;;;;;;5053596;28;20028;-63
2023/05/08 07:40:32;;;;;;;5.55;4.63;;;13.20;99.90;;;;;;5055479;28;20025;-60
2023/05/08 07:42:58;;;;;;;5.10;4.57;;;13.30;99.90;;;;;;5054169;28;20064;-60
2023/05/08 07:45:23;;;;;;;4.80;4.40;;;13.50;99.90;;;;;;5056530;28;20450;-61
2023/05/08 07:47:54;;;;;;;5.57;5.07;;;13.70;99.90;;;;;;5037778;28;20390;-62
2023/05/08 07:50:21;;;;;;;5.85;5.18;;;13.80;99.90;;;;;;5055889;28;20053;-61
2023/05/08 07:52:50;;;;;;;5.82;5.25;;;13.90;99.90;;;;;;5056771;28;20034;-61
2023/05/08 07:55:15;;;;;;;5.43;4.53;;;13.80;99.90;;;;;;5058706;28;20053;-60
2023/05/08 07:57:42;;;;;;;4.90;4.15;;;13.90;99.90;;;;;;5058800;28;20123;-60
2023/05/08 08:00:11;;;;;;;6.00;4.80;;;14.00;99.90;;;;;;5057547;28;20039;-61
2023/05/08 08:02:38;;;;;;;5.38;4.93;;;14.20;99.90;;;;;;5058682;28;20032;-61
2023/05/08 08:05:04;;;;;;;5.63;5.13;;;14.30;99.90;;;;;;5057357;28;20285;-59
2023/05/08 08:07:31;;;;;;;5.32;4.80;;;14.40;99.90;;;;;;5059157;28;20073;-64
2023/05/08 08:09:57;;;;;;;6.45;4.85;;;14.50;99.90;;;;;;5057219;28;20071;-60
2023/05/08 08:12:23;;;;;;;6.60;5.07;;;14.60;99.90;;;;;;5057258;28;20112;-63
2023/05/08 08:14:48;;;;;;;5.70;5.20;;;14.70;99.90;;;;;;5058032;28;20126;-60
2023/05/08 08:17:14;;;;;;;5.93;5.43;;;14.80;99.90;;;;;;5057595;28;20037;-61
2023/05/08 08:19:40;;;;;;;5.60;5.10;;;15.00;99.90;;;;;;5059086;28;20048;-62
2023/05/08 08:22:05;;;;;;;8.70;5.68;;;15.20;99.90;;;;;;5056406;28;20150;-61
2023/05/08 08:24:31;;;;;;;6.53;5.45;;;15.20;99.90;;;;;;5058738;28;20074;-61
2023/05/08 08:26:56;;;;;;;10.38;5.53;;;15.30;99.90;;;;;;5056416;28;20376;-59
2023/05/08 08:29:22;;;;;;;6.22;5.35;;;15.50;99.90;;;;;;5046748;28;20462;-60
2023/05/08 08:31:48;;;;;;;6.07;4.95;;;15.60;99.90;;;;;;5057301;28;20119;-60
2023/05/08 08:34:13;;;;;;;5.75;5.20;;;15.70;99.90;;;;;;5057338;28;20024;-61
2023/05/08 08:36:39;;;;;;;5.28;4.78;;;15.80;99.90;;;;;;5056987;28;20414;-61
2023/05/08 08:39:05;;;;;;;6.07;4.90;;;16.10;99.90;;;;;;5058303;28;20447;-61
2023/05/08 08:41:31;;;;;;;5.32;4.82;;;16.20;99.90;;;;;;5039313;28;20074;-61
2023/05/08 08:43:56;;;;;;;5.20;4.80;;;16.20;99.90;;;;;;5060298;28;20493;-57
2023/05/08 08:46:26;;;;;;;5.82;4.93;;;16.30;99.90;;;;;;5059056;28;20025;-58
2023/05/08 08:48:54;;;;;;;5.53;4.93;;;16.40;99.90;;;;;;5058941;28;20056;-64
2023/05/08 08:51:27;;;;;;;4.68;4.20;;;16.40;99.90;;;;;;5058701;28;20070;-59
2023/05/08 08:54:08;;;;;;;4.68;4.28;;;16.60;99.90;;;;;;5042073;28;20095;-61
2023/05/08 08:56:37;;;;;;;5.05;4.55;;;16.80;99.90;;;;;;5059458;28;20021;-60
2023/05/08 08:59:03;;;;;;;6.07;4.63;;;16.90;99.90;;;;;;5059213;28;20112;-64
2023/05/08 09:01:32;;;;;;;5.47;4.78;;;17.00;99.90;;;;;;5057339;28;20119;-63
2023/05/08 09:03:58;;;;;;;5.10;4.60;;;17.10;99.70;;;;;;5059360;28;20411;-61
2023/05/08 09:06:26;;;;;;;7.45;4.10;;;17.00;99.50;;;;;;5055813;28;20287;-61
2023/05/08 09:08:55;;;;;;;5.25;4.57;;;16.60;98.20;;;;;;5059398;28;20050;-64
2023/05/08 09:11:21;;;;;;;5.97;4.53;;;16.30;99.40;;;;;;5057394;28;20021;-62
2023/05/08 09:13:47;;;;;;;5.15;4.40;;;16.10;99.90;;;;;;5059137;28;20020;-62
2023/05/08 09:16:12;;;;;;;5.07;4.20;;;16.10;99.90;;;;;;5054476;28;20093;-63
2023/05/08 09:18:38;;;;;;;5.50;5.00;;;16.10;99.90;;;;;;5057299;28;20759;-61
2023/05/08 09:21:05;;;;;;;4.65;4.25;;;16.00;99.90;;;;;;5057947;28;20021;-63
2023/05/08 09:23:31;;;;;;;4.78;4.38;;;15.90;99.90;;;;;;5058475;28;20032;-63
2023/05/08 09:25:56;;;;;;;4.88;4.43;;;16.00;99.90;;;;;;5056784;28;20047;-64
2023/05/08 09:28:24;;;;;;;4.82;4.43;;;16.00;99.90;;;;;;5057311;28;20035;-61
2023/05/08 09:30:52;;;;;;;7.28;4.60;;;16.00;99.30;;;;;;5057678;28;20444;-61
2023/05/08 09:33:19;;;;;;;4.80;4.40;;;16.10;99.90;;;;;;5057050;28;20056;-63
2023/05/08 09:35:49;;;;;;;5.55;5.03;;;16.10;99.90;;;;;;5056160;28;20017;-61
2023/05/08 09:38:38;;;;;;;6.35;4.85;;;16.00;99.20;;;;;;5038442;28;20484;-61
2023/05/08 09:41:14;;;;;;;4.88;4.47;;;16.00;99.10;;;;;;5057751;28;20112;-60
2023/05/08 09:43:44;;;;;;;4.97;4.50;;;16.10;99.50;;;;;;5057112;28;20070;-60
2023/05/08 09:46:22;;;;;;;5.47;4.55;;;16.20;99.50;;;;;;5057845;28;20068;-61
2023/05/08 09:48:56;;;;;;;7.18;4.80;;;16.40;99.90;;;;;;5038225;28;20036;-63
2023/05/08 09:51:22;;;;;;;5.57;4.40;;;16.40;99.30;;;;;;5057274;28;20027;-62
2023/05/08 09:53:52;;;;;;;5.15;4.70;;;16.40;98.90;;;;;;5038904;28;20046;-61
2023/05/08 09:56:29;;;;;;;4.57;4.18;;;16.40;99.80;;;;;;5056899;28;20104;-62
2023/05/08 09:58:55;;;;;;;5.63;4.97;;;16.40;99.90;;;;;;5054777;28;20616;-63
2023/05/08 10:01:33;;;;;;;4.97;4.47;;;16.50;99.20;;;;;;5055302;28;20123;-61
2023/05/08 10:03:59;;;;;;;5.45;4.60;;;16.40;99.30;;;;;;5055738;28;20016;-62
2023/05/08 10:06:27;;;;;;;4.80;3.97;;;16.40;99.00;;;;;;5037846;28;20124;-61
2023/05/08 10:09:11;;;;;;;4.28;3.85;;;16.30;98.40;;;;;;5055915;28;20020;-61
2023/05/08 10:11:38;;;;;;;4.60;4.20;;;16.40;99.70;;;;;;5055153;28;20111;-62
2023/05/08 10:14:04;;;;;;;4.75;3.95;;;16.50;99.10;;;;;;5055057;28;20036;-62
2023/05/08 10:16:31;;;;;;;4.13;3.83;;;16.40;99.30;;;;;;5053187;28;20021;-63
2023/05/08 10:19:04;;;;;;;5.88;4.03;;;16.40;99.20;;;;;;5054607;28;20031;-62
2023/05/08 10:21:35;;;;;;;4.35;3.95;;;16.60;99.40;;;;;;5055576;28;20478;-64
2023/05/08 10:24:04;;;;;;;4.47;4.07;;;16.70;99.90;;;;;;5054369;28;20029;-61
2023/05/08 10:26:32;;;;;;;6.35;3.72;;;16.80;98.60;;;;;;5056625;28;20107;-61
2023/05/08 10:29:05;;;;;;;4.53;4.13;;;16.90;99.20;;;;;;5056675;28;20077;-61
2023/05/08 10:31:35;;;;;;;3.72;3.42;;;16.90;98.40;;;;;;5045786;28;20086;-60
2023/05/08 10:34:02;;;;;;;3.97;3.60;;;17.00;99.60;;;;;;5023064;28;20024;-61
2023/05/08 10:36:29;;;;;;;4.90;4.50;;;17.10;99.00;;;;;;5055331;28;20035;-62
2023/05/08 10:38:57;;;;;;;4.63;3.38;;;17.20;98.50;;;;;;5055504;28;20391;-61
2023/05/08 10:41:24;;;;;;;6.28;3.83;;;17.30;98.30;;;;;;5056730;28;20028;-63
2023/05/08 10:43:50;;;;;;;3.60;3.30;;;17.40;98.20;;;;;;5039408;28;20025;-63
2023/05/08 10:46:29;;;;;;;4.75;3.70;;;17.50;97.90;;;;;;5039415;28;20025;-62
2023/05/08 10:49:17;;;;;;;5.35;3.58;;;17.30;97.40;;;;;;5056759;28;20420;-60
2023/05/08 10:52:11;;;;;;;3.90;3.60;;;17.20;97.80;;;;;;5056748;28;20108;-62
2023/05/08 10:55:04;;;;;;;5.70;4.13;;;17.20;98.30;;;;;;5056125;28;20104;-63
2023/05/08 10:57:31;;;;;;;4.28;3.88;;;17.40;97.60;;;;;;5055790;28;20360;-62
2023/05/08 10:59:56;;;;;;;6.00;3.70;;;17.40;98.30;;;;;;5054034;28;20546;-64
2023/05/08 11:02:30;;;;;;;3.78;3.47;;;17.40;97.90;;;;;;5056327;28;20115;-61
2023/05/08 11:05:16;;;;;;;4.00;3.70;;;17.40;97.70;;;;;;5055207;28;20069;-62
2023/05/08 11:08:00;;;;;;;4.13;3.80;;;17.40;97.10;;;;;;5056149;28;20033;-61
2023/05/08 11:10:35;;;;;;;3.67;3.38;;;17.50;98.10;;;;;;5036543;28;20464;-62
2023/05/08 11:13:03;;;;;;;5.65;3.50;;;17.70;98.30;;;;;;5055587;28;20028;-62
2023/05/08 11:15:36;;;;;;;4.00;3.30;;;17.80;97.70;;;;;;5055428;28;20063;-63
2023/05/08 11:18:07;;;;;;;4.22;3.83;;;17.90;97.40;;;;;;5054757;28;20032;-62
2023/05/08 11:20:41;;;;;;;3.85;3.17;;;17.90;96.50;;;;;;5054506;28;20032;-63
2023/05/08 11:23:35;;;;;;;3.40;3.10;;;17.90;96.40;;;;;;5053958;28;20059;-60
2023/05/08 11:26:04;;;;;;;5.22;3.25;;;17.80;96.00;;;;;;5052428;28;20055;-62
2023/05/08 11:28:55;;;;;;;3.45;2.97;;;17.80;96.10;;;;;;5040195;28;20618;-62
2023/05/08 11:31:22;;;;;;;3.15;2.85;;;17.80;94.30;;;;;;5057027;28;20268;-64
2023/05/08 11:33:48;;;;;;;3.10;2.88;;;17.60;95.10;;;;;;5059276;28;20048;-62
2023/05/08 11:36:15;;;;;;;2.83;2.63;;;17.50;95.50;;;;;;5058487;28;20044;-62
2023/05/08 11:38:42;;;;;;;2.70;2.50;;;17.50;95.20;;;;;;5058322;28;20020;-63
2023/05/08 11:41:22;;;;;;;2.97;2.67;;;17.60;94.80;;;;;;5058627;28;20025;-59
2023/05/08 11:43:56;;;;;;;2.78;2.53;;;17.60;94.60;;;;;;5040202;28;20094;-64
2023/05/08 11:46:22;;;;;;;2.78;2.40;;;17.70;93.50;;;;;;5060929;28;20017;-60
2023/05/08 11:48:48;;;;;;;2.70;2.50;;;17.70;91.90;;;;;;5059521;28;20029;-63
2023/05/08 11:51:18;;;;;;;3.67;2.40;;;17.70;93.00;;;;;;5059712;28;20033;-60
2023/05/08 11:53:45;;;;;;;4.15;2.47;;;17.80;93.00;;;;;;5059475;28;20146;-62
2023/05/08 11:56:11;;;;;;;3.88;2.42;;;17.90;92.20;;;;;;5043900;28;20122;-63
2023/05/08 11:58:37;;;;;;;2.53;2.00;;;18.00;92.10;;;;;;5040512;28;20052;-64
2023/05/08 12:01:03;;;;;;;2.17;2.05;;;18.00;91.70;;;;;;5058316;28;20033;-62
2023/05/08 12:03:28;;;;;;;2.90;2.20;;;17.90;90.50;;;;;;5043197;28;20613;-64
2023/05/08 12:05:58;;;;;;;3.08;2.60;;;17.90;91.70;;;;;;5058619;28;20024;-63
2023/05/08 12:08:24;;;;;;;2.50;2.08;;;18.00;91.70;;;;;;5057610;28;20031;-62
2023/05/08 12:10:55;;;;;;;2.20;2.00;;;18.10;90.70;;;;;;5040412;28;20283;-62
2023/05/08 12:13:22;;;;;;;3.20;1.63;;;18.30;90.20;;;;;;5059323;28;20036;-64
2023/05/08 12:15:50;;;;;;;4.20;2.03;;;18.40;90.20;;;;;;5057724;28;20024;-62
2023/05/08 12:18:16;;;;;;;2.85;1.67;;;18.40;88.10;;;;;;5057865;28;20407;-63
2023/05/08 12:20:42;;;;;;;2.17;1.98;;;18.50;88.90;;;;;;5039530;28;20442;-61
2023/05/08 12:23:11;;;;;;;2.22;1.80;;;18.70;90.00;;;;;;5057387;28;20032;-62
2023/05/08 12:25:38;;;;;;;1.83;1.65;;;18.90;86.70;;;;;;5057857;28;20048;-62
2023/05/08 12:28:06;;;;;;;3.15;1.83;;;19.00;85.10;;;;;;5057770;28;20037;-61
2023/05/08 12:30:32;;;;;;;2.15;1.95;;;19.00;85.30;;;;;;5039238;28;20041;-61
2023/05/08 12:32:58;;;;;;;2.22;2.03;;;19.00;87.60;;;;;;5057239;28;20052;-64
2023/05/08 12:35:24;;;;;;;3.22;1.95;;;19.10;87.60;;;;;;5042089;28;20443;-62
2023/05/08 12:37:51;;;;;;;2.28;2.08;;;19.20;87.80;;;;;;5056642;28;20037;-63
2023/05/08 12:40:31;;;;;;;3.75;2.00;;;19.40;86.30;;;;;;5059497;28;20284;-64
2023/05/08 12:43:00;;;;;;;1.63;1.50;;;19.40;84.90;;;;;;5058440;28;20025;-62
2023/05/08 12:45:32;;;;;;;1.80;1.70;;;19.50;83.20;;;;;;5041239;28;20120;-65
2023/05/08 12:48:04;;;;;;;1.95;1.65;;;19.50;84.10;;;;;;5057964;28;20271;-61
2023/05/08 12:50:37;;;;;;;2.63;2.10;;;19.60;83.50;;;;;;5057571;28;20048;-65
2023/05/08 12:53:04;;;;;;;1.73;1.63;;;19.70;82.40;;;;;;5057603;28;20028;-62
2023/05/08 12:55:32;;;;;;;2.38;1.77;;;19.50;81.40;;;;;;5056017;28;20025;-62
2023/05/08 12:58:03;;;;;;;2.88;1.90;;;19.50;81.50;;;;;;5037700;28;20035;-64
2023/05/08 13:00:42;;;;;;;1.95;1.45;;;19.40;84.30;;;;;;5058365;28;20447;-63
2023/05/08 13:03:10;;;;;;;1.65;1.42;;;19.30;82.70;;;;;;5057432;28;20040;-61